Time;durP1;ratioP1;P1;durP2;ratioP2;P2;SDS_P1;SDS_P2;PMS_P1;PMS_P2;Temp;Humidity;BMP_temperature;BMP_pressure;BME280_temperature;BME280_humidity;BME280_pressure;Samples;Min_cycle;Max_cycle;Signal;HPM_P1;HPM_P2
2023/05/06 00:00:42;;;;;;;32.83;16.08;;;;;;;;;;6156791;23;20016;-86
2023/05/06 00:03:08;;;;;;;27.60;15.82;;;;;;;;;;6159922;23;20019;-86
2023/05/06 00:05:36;;;;;;;37.08;17.42;;;;;;;;;;6133040;23;20016;-84
2023/05/06 00:08:03;;;;;;;39.97;17.42;;;;;;;;;;6134523;23;20009;-88
2023/05/06 00:10:29;;;;;;;34.55;16.98;;;;;;;;;;6135761;23;20020;-88
2023/05/06 00:12:55;;;;;;;34.55;16.42;;;;;;;;;;6138380;23;20052;-89
2023/05/06 00:15:22;;;;;;;34.35;15.77;;;;;;;;;;6136337;23;20040;-90
2023/05/06 00:17:48;;;;;;;33.85;15.80;;;;;;;;;;6167556;22;20044;-89
2023/05/06 00:20:14;;;;;;;43.17;16.42;;;;;;;;;;6162430;23;20420;-90
2023/05/06 00:22:41;;;;;;;37.60;16.70;;;;;;;;;;6162713;23;20069;-87
2023/05/06 00:25:32;;;;;;;35.67;15.93;;;;;;;;;;6160753;23;20013;-88
2023/05/06 00:27:57;;;;;;;35.15;14.73;;;;;;;;;;6162330;23;20013;-87
2023/05/06 00:30:24;;;;;;;35.40;15.60;;;;;;;;;;6146539;23;20518;-88
2023/05/06 00:32:52;;;;;;;29.67;14.68;;;;;;;;;;6175118;23;20024;-89
2023/05/06 00:35:18;;;;;;;33.95;15.65;;;;;;;;;;6150859;23;20009;-88
2023/05/06 00:37:50;;;;;;;37.00;14.25;;;;;;;;;;6171082;23;20005;-88
2023/05/06 00:40:16;;;;;;;29.40;13.90;;;;;;;;;;6167802;23;20008;-87
2023/05/06 00:42:47;;;;;;;27.30;13.57;;;;;;;;;;6140840;23;20483;-85
2023/05/06 00:45:13;;;;;;;32.95;14.40;;;;;;;;;;6141412;23;20672;-88
2023/05/06 00:47:59;;;;;;;47.55;14.98;;;;;;;;;;6191158;23;20043;-88
2023/05/06 00:50:30;;;;;;;32.80;14.18;;;;;;;;;;6184519;23;20503;-88
2023/05/06 00:52:58;;;;;;;27.58;13.52;;;;;;;;;;6164668;23;20009;-88
2023/05/06 00:55:28;;;;;;;36.15;14.63;;;;;;;;;;6163393;23;20012;-88
2023/05/06 00:57:56;;;;;;;33.45;13.95;;;;;;;;;;6163455;23;20234;-86
2023/05/06 01:00:23;;;;;;;35.05;13.48;;;;;;;;;;6164068;23;20017;-89
2023/05/06 01:02:52;;;;;;;33.75;14.52;;;;;;;;;;6190025;23;20009;-89
2023/05/06 01:05:40;;;;;;;31.77;14.18;;;;;;;;;;6162620;23;20009;-87
2023/05/06 01:08:13;;;;;;;39.45;14.93;;;;;;;;;;6184877;23;20005;-87
2023/05/06 01:10:59;;;;;;;29.63;14.65;;;;;;;;;;6160934;23;20036;-88
2023/05/06 01:13:44;;;;;;;27.60;13.50;;;;;;;;;;6136569;23;20017;-86
2023/05/06 01:16:43;;;;;;;33.83;11.70;;;;;;;;;;6161461;23;20005;-87
2023/05/06 01:19:11;;;;;;;23.92;10.57;;;;;;;;;;6142289;23;20024;-88
2023/05/06 01:21:41;;;;;;;23.05;10.80;;;;;;;;;;6192030;23;20009;-88
2023/05/06 01:24:12;;;;;;;23.60;10.05;;;;;;;;;;6218216;23;20013;-87
2023/05/06 01:26:41;;;;;;;21.40;9.68;;;;;;;;;;6167431;23;20088;-88
2023/05/06 01:29:36;;;;;;;29.40;11.57;;;;;;;;;;6167459;23;20009;-87
2023/05/06 01:32:13;;;;;;;26.35;11.07;;;;;;;;;;6185426;23;20004;-87
2023/05/06 01:34:50;;;;;;;24.10;10.63;;;;;;;;;;6191899;23;20331;-87
2023/05/06 01:37:35;;;;;;;27.88;11.07;;;;;;;;;;6168903;23;20024;-87
2023/05/06 01:40:04;;;;;;;28.52;9.40;;;;;;;;;;6191614;23;20095;-89
2023/05/06 01:42:34;;;;;;;25.90;11.75;;;;;;;;;;6166854;23;20247;-86
2023/05/06 01:45:01;;;;;;;23.35;11.23;;;;;;;;;;6193961;23;20029;-88
2023/05/06 01:47:44;;;;;;;31.38;13.15;;;;;;;;;;6192393;23;20058;-89
2023/05/06 01:50:15;;;;;;;36.13;14.15;;;;;;;;;;6193831;23;20093;-88
2023/05/06 01:52:44;;;;;;;29.75;16.25;;;;;;;;;;6193658;23;20075;-89
2023/05/06 01:55:13;;;;;;;46.90;16.63;;;;;;;;;;6167502;23;20016;-88
2023/05/06 01:57:41;;;;;;;40.60;16.60;;;;;;;;;;6194071;23;20099;-87
2023/05/06 02:00:08;;;;;;;30.35;14.60;;;;;;;;;;6192444;23;20013;-86
2023/05/06 02:02:44;;;;;;;34.22;14.25;;;;;;;;;;6190054;23;20013;-88
2023/05/06 02:05:10;;;;;;;;;;;;;;;;;;6193712;23;20072;-87
2023/05/06 02:07:39;;;;;;;28.75;11.63;;;;;;;;;;6213731;23;19998;-88
2023/05/06 02:10:09;;;;;;;24.35;11.52;;;;;;;;;;6167516;23;20511;-88
2023/05/06 02:12:35;;;;;;;20.50;10.98;;;;;;;;;;6219983;23;20317;-87
2023/05/06 02:15:11;;;;;;;23.77;10.23;;;;;;;;;;6165037;23;20008;-86
2023/05/06 02:17:45;;;;;;;21.83;10.02;;;;;;;;;;6169199;22;20584;-87
2023/05/06 02:20:12;;;;;;;22.33;10.15;;;;;;;;;;6191833;23;20016;-86
2023/05/06 02:22:38;;;;;;;24.35;9.45;;;;;;;;;;6192341;23;20071;-87
2023/05/06 02:25:06;;;;;;;18.02;8.93;;;;;;;;;;6167825;23;20008;-87
2023/05/06 02:27:32;;;;;;;20.50;10.27;;;;;;;;;;6191075;23;20019;-87
2023/05/06 02:29:59;;;;;;;16.08;8.93;;;;;;;;;;6164491;23;20008;-87
2023/05/06 02:32:25;;;;;;;27.08;10.73;;;;;;;;;;6188556;23;20015;-87
2023/05/06 02:34:52;;;;;;;21.40;10.23;;;;;;;;;;6163294;23;20404;-87
2023/05/06 02:37:18;;;;;;;18.10;9.80;;;;;;;;;;6158275;23;20062;-87
2023/05/06 02:39:44;;;;;;;19.90;9.40;;;;;;;;;;6164284;23;20016;-87
2023/05/06 02:42:16;;;;;;;19.23;9.02;;;;;;;;;;6161717;23;20020;-87
2023/05/06 02:44:42;;;;;;;21.75;9.75;;;;;;;;;;6189744;23;20062;-87
2023/05/06 02:47:12;;;;;;;21.17;9.93;;;;;;;;;;6191363;23;20010;-87
2023/05/06 02:49:41;;;;;;;36.42;11.98;;;;;;;;;;6216970;23;20005;-87
2023/05/06 02:52:08;;;;;;;28.13;12.20;;;;;;;;;;6190097;23;20012;-87
2023/05/06 02:54:39;;;;;;;19.08;10.55;;;;;;;;;;6217611;23;20308;-88
2023/05/06 02:57:06;;;;;;;40.47;11.60;;;;;;;;;;6189143;23;20450;-88
2023/05/06 02:59:40;;;;;;;52.65;11.93;;;;;;;;;;6165649;23;20352;-87
2023/05/06 03:02:09;;;;;;;107.63;12.65;;;;;;;;;;6190048;23;20005;-87
2023/05/06 03:04:35;;;;;;;156.43;13.32;;;;;;;;;;6189652;23;20020;-87
2023/05/06 03:07:10;;;;;;;64.25;9.07;;;;;;;;;;6189854;23;20001;-88
2023/05/06 03:09:36;;;;;;;40.47;9.70;;;;;;;;;;6163115;23;20058;-87
2023/05/06 03:12:06;;;;;;;25.20;9.18;;;;;;;;;;6165333;23;20008;-88
2023/05/06 03:14:32;;;;;;;55.38;11.43;;;;;;;;;;6191637;23;20009;-88
2023/05/06 03:16:59;;;;;;;24.13;8.27;;;;;;;;;;6167845;23;20009;-87
2023/05/06 03:19:27;;;;;;;20.15;8.85;;;;;;;;;;6144522;23;20026;-87
2023/05/06 03:21:54;;;;;;;14.02;8.43;;;;;;;;;;6186133;23;20584;-89
2023/05/06 03:24:20;;;;;;;91.05;10.20;;;;;;;;;;6186560;23;20419;-88
2023/05/06 03:26:46;;;;;;;27.20;6.95;;;;;;;;;;6162021;23;20009;-88
2023/05/06 03:29:15;;;;;;;16.35;6.53;;;;;;;;;;6137334;23;20314;-87
2023/05/06 03:31:41;;;;;;;32.80;6.10;;;;;;;;;;6135629;23;20005;-88
2023/05/06 03:34:29;;;;;;;13.15;7.18;;;;;;;;;;6135564;23;20013;-89
2023/05/06 03:36:54;;;;;;;15.23;7.13;;;;;;;;;;6165543;23;20147;-88
2023/05/06 03:39:20;;;;;;;17.33;8.48;;;;;;;;;;6137108;23;20009;-88
2023/05/06 03:41:48;;;;;;;27.63;7.57;;;;;;;;;;6136792;23;20023;-88
2023/05/06 03:44:14;;;;;;;12.48;6.10;;;;;;;;;;6136382;23;20005;-89
2023/05/06 03:46:46;;;;;;;14.80;6.88;;;;;;;;;;6185735;23;20005;-87
2023/05/06 03:49:31;;;;;;;14.02;7.60;;;;;;;;;;6135054;23;20013;-87
2023/05/06 03:51:57;;;;;;;29.58;9.77;;;;;;;;;;6183214;23;20329;-88
2023/05/06 03:54:25;;;;;;;86.78;12.35;;;;;;;;;;6159256;23;20020;-88
2023/05/06 03:56:55;;;;;;;85.93;10.55;;;;;;;;;;6160466;23;20016;-87
2023/05/06 03:59:21;;;;;;;101.85;10.65;;;;;;;;;;6136969;23;20384;-87
2023/05/06 04:01:53;;;;;;;84.55;9.02;;;;;;;;;;6134321;23;20294;-86
2023/05/06 04:04:29;;;;;;;62.38;6.40;;;;;;;;;;6136235;23;20396;-86
2023/05/06 04:06:55;;;;;;;51.70;6.57;;;;;;;;;;6140267;23;20005;-88
2023/05/06 04:09:21;;;;;;;46.90;6.25;;;;;;;;;;6136153;23;20032;-88
2023/05/06 04:11:48;;;;;;;53.83;6.70;;;;;;;;;;6162542;23;20005;-88
2023/05/06 04:14:14;;;;;;;37.33;6.00;;;;;;;;;;6139617;23;20052;-87
2023/05/06 04:16:43;;;;;;;25.95;6.15;;;;;;;;;;6139099;23;20694;-90
2023/05/06 04:19:10;;;;;;;59.42;6.82;;;;;;;;;;6191988;22;20021;-89
2023/05/06 04:21:36;;;;;;;44.75;7.28;;;;;;;;;;6140135;23;20340;-90
2023/05/06 04:24:21;;;;;;;30.92;5.63;;;;;;;;;;6139977;23;20017;-89
2023/05/06 04:26:47;;;;;;;22.52;6.35;;;;;;;;;;6144588;23;20024;-89
2023/05/06 04:29:13;;;;;;;28.38;6.50;;;;;;;;;;6142165;23;20028;-89
2023/05/06 04:31:42;;;;;;;30.75;6.05;;;;;;;;;;6146801;23;20040;-87
2023/05/06 04:34:11;;;;;;;22.35;6.20;;;;;;;;;;6147663;23;20567;-89
2023/05/06 04:36:38;;;;;;;15.05;6.53;;;;;;;;;;6198126;23;20012;-86
2023/05/06 04:39:09;;;;;;;35.38;7.55;;;;;;;;;;6197153;23;20016;-87
2023/05/06 04:41:38;;;;;;;49.92;9.32;;;;;;;;;;6193823;23;20096;-88
2023/05/06 04:44:04;;;;;;;25.42;8.02;;;;;;;;;;6141658;23;20451;-87
2023/05/06 04:46:39;;;;;;;15.88;8.23;;;;;;;;;;6192114;23;20406;-88
2023/05/06 04:49:09;;;;;;;25.70;7.85;;;;;;;;;;6190664;23;20004;-88
2023/05/06 04:51:35;;;;;;;30.17;7.75;;;;;;;;;;6141644;23;20020;-89
2023/05/06 04:54:01;;;;;;;30.65;7.35;;;;;;;;;;6139715;23;20016;-89
2023/05/06 04:56:37;;;;;;;55.38;9.40;;;;;;;;;;6139382;23;20443;-86
2023/05/06 04:59:08;;;;;;;41.53;8.70;;;;;;;;;;6189429;23;20515;-87
2023/05/06 05:01:34;;;;;;;29.52;9.68;;;;;;;;;;6139639;23;20013;-87
2023/05/06 05:04:03;;;;;;;36.55;8.48;;;;;;;;;;6188279;23;20606;-87
2023/05/06 05:06:32;;;;;;;21.02;8.82;;;;;;;;;;6187104;23;20553;-88
2023/05/06 05:09:04;;;;;;;16.27;8.85;;;;;;;;;;6163202;23;20044;-87
2023/05/06 05:11:31;;;;;;;13.00;7.45;;;;;;;;;;6186370;23;20494;-87
2023/05/06 05:13:57;;;;;;;24.65;9.27;;;;;;;;;;6138094;23;20021;-87
2023/05/06 05:16:24;;;;;;;18.73;8.63;;;;;;;;;;6137777;23;20032;-86
2023/05/06 05:18:50;;;;;;;18.45;8.95;;;;;;;;;;6140358;23;20021;-86
2023/05/06 05:21:16;;;;;;;15.27;8.95;;;;;;;;;;6136774;23;20013;-86
2023/05/06 05:23:51;;;;;;;20.45;9.15;;;;;;;;;;6142403;23;20013;-87
2023/05/06 05:26:17;;;;;;;15.07;9.40;;;;;;;;;;6138604;23;20444;-87
2023/05/06 05:28:44;;;;;;;18.70;9.25;;;;;;;;;;6136675;23;20060;-88
2023/05/06 05:31:50;;;;;;;;;;;;;;;;;;;;;
2023/05/06 05:34:17;;;;;;;20.63;9.38;;;;;;;;;;6184257;23;20032;-86
2023/05/06 05:36:44;;;;;;;16.35;8.38;;;;;;;;;;6136911;23;20021;-88
2023/05/06 05:39:13;;;;;;;20.77;9.10;;;;;;;;;;6138253;23;20080;-87
2023/05/06 05:44:29;;;;;;;17.33;8.57;;;;;;;;;;6150446;23;20021;-88
2023/05/06 05:46:55;;;;;;;21.13;10.30;;;;;;;;;;6140011;23;20020;-88
2023/05/06 05:49:22;;;;;;;19.27;9.73;;;;;;;;;;6138087;23;20013;-88
2023/05/06 05:51:48;;;;;;;16.30;8.57;;;;;;;;;;6138421;23;20012;-88
2023/05/06 05:54:14;;;;;;;18.17;10.13;;;;;;;;;;6139109;23;20008;-87
2023/05/06 05:56:47;;;;;;;17.73;9.60;;;;;;;;;;6164447;23;20063;-88
2023/05/06 05:59:14;;;;;;;23.05;9.95;;;;;;;;;;6140919;23;20009;-89
2023/05/06 06:01:43;;;;;;;22.23;9.90;;;;;;;;;;6137988;23;20020;-87
2023/05/06 06:04:10;;;;;;;21.13;11.02;;;;;;;;;;6185182;23;20114;-87
2023/05/06 06:06:36;;;;;;;24.63;11.20;;;;;;;;;;6157984;23;20346;-86
2023/05/06 06:09:03;;;;;;;22.67;10.57;;;;;;;;;;6133558;23;20347;-86
2023/05/06 06:11:30;;;;;;;26.00;11.15;;;;;;;;;;6185409;23;20423;-87
2023/05/06 06:13:56;;;;;;;29.05;10.60;;;;;;;;;;6157233;23;20020;-87
2023/05/06 06:16:33;;;;;;;31.63;11.98;;;;;;;;;;6133111;23;20029;-86
2023/05/06 06:19:06;;;;;;;25.80;11.85;;;;;;;;;;6141764;23;20020;-86
2023/05/06 06:21:39;;;;;;;27.75;12.95;;;;;;;;;;6133869;23;20013;-86
2023/05/06 06:24:05;;;;;;;35.83;14.82;;;;;;;;;;6157591;23;20223;-87
2023/05/06 06:26:40;;;;;;;42.22;17.52;;;;;;;;;;6134335;23;20024;-85
2023/05/06 06:29:09;;;;;;;48.60;19.48;;;;;;;;;;6132676;23;20008;-86
2023/05/06 06:31:56;;;;;;;47.58;19.35;;;;;;;;;;6184554;23;20005;-85
2023/05/06 06:34:23;;;;;;;44.35;18.58;;;;;;;;;;6175996;23;20012;-85
2023/05/06 06:36:52;;;;;;;37.78;16.83;;;;;;;;;;6156540;23;20009;-87
2023/05/06 06:39:18;;;;;;;35.35;17.23;;;;;;;;;;6183278;23;20484;-86
2023/05/06 06:41:45;;;;;;;36.72;17.10;;;;;;;;;;6131953;23;20439;-86
2023/05/06 06:44:11;;;;;;;38.85;16.27;;;;;;;;;;6128261;23;20013;-87
2023/05/06 06:46:38;;;;;;;31.88;14.48;;;;;;;;;;6130809;23;20065;-86
2023/05/06 06:49:08;;;;;;;39.42;16.20;;;;;;;;;;6156943;23;20396;-87
2023/05/06 06:51:37;;;;;;;32.88;13.15;;;;;;;;;;6132592;23;20013;-87
2023/05/06 06:54:04;;;;;;;26.60;14.25;;;;;;;;;;6132211;23;20490;-87
2023/05/06 06:56:30;;;;;;;32.67;14.82;;;;;;;;;;6158100;23;20028;-86
2023/05/06 06:59:06;;;;;;;30.92;15.23;;;;;;;;;;6123512;23;20018;-86
2023/05/06 07:01:32;;;;;;;38.38;13.63;;;;;;;;;;6078641;23;20014;-87
2023/05/06 07:03:59;;;;;;;34.25;14.10;;;;;;;;;;6075081;23;20014;-87
2023/05/06 07:06:26;;;;;;;32.08;14.02;;;;;;;;;;6075771;23;20367;-87
2023/05/06 07:08:55;;;;;;;30.63;13.77;;;;;;;;;;6077631;23;20002;-87
2023/05/06 07:11:22;;;;;;;23.88;12.57;;;;;;;;;;6073774;23;20009;-84
2023/05/06 07:13:55;;;;;;;24.92;13.57;;;;;;;;;;6074083;23;20076;-87
2023/05/06 07:16:21;;;;;;;32.38;13.52;;;;;;;;;;6096764;23;20145;-84
2023/05/06 07:18:54;;;;;;;29.52;13.73;;;;;;;;;;6075068;23;20047;-89
2023/05/06 07:21:55;;;;;;;27.83;13.57;;;;;;;;;;6077919;23;20018;-90
2023/05/06 07:24:21;;;;;;;26.00;12.68;;;;;;;;;;6133313;23;20022;-93
2023/05/06 07:31:59;;;;;;;;;;;;;;;;;;6231002;22;20537;-91
2023/05/06 07:34:25;;;;;;;26.48;12.52;;;;;;;;;;6218987;23;19915;-89
2023/05/06 07:36:53;;;;;;;27.05;13.23;;;;;;;;;;6218438;23;20615;-88
2023/05/06 07:39:23;;;;;;;29.63;14.23;;;;;;;;;;6220817;23;20035;-90
2023/05/06 07:41:55;;;;;;;29.15;12.75;;;;;;;;;;6221937;23;20083;-88
2023/05/06 07:44:21;;;;;;;33.15;13.10;;;;;;;;;;6218163;23;20020;-88
2023/05/06 07:46:48;;;;;;;28.23;13.07;;;;;;;;;;6216635;23;20019;-89
2023/05/06 07:49:14;;;;;;;33.88;14.45;;;;;;;;;;6217643;23;20876;-88
2023/05/06 07:51:41;;;;;;;22.33;13.18;;;;;;;;;;6216530;23;20015;-89
2023/05/06 07:54:07;;;;;;;28.65;13.38;;;;;;;;;;6216360;23;20008;-88
2023/05/06 07:56:34;;;;;;;28.67;13.30;;;;;;;;;;6211265;23;20127;-88
2023/05/06 07:59:00;;;;;;;29.95;15.02;;;;;;;;;;6189482;23;20022;-88
2023/05/06 08:01:28;;;;;;;26.05;13.27;;;;;;;;;;6213083;23;20023;-89
2023/05/06 08:03:59;;;;;;;28.00;14.38;;;;;;;;;;6242045;23;20004;-85
2023/05/06 08:06:25;;;;;;;21.67;13.15;;;;;;;;;;6241397;23;20087;-87
2023/05/06 08:08:52;;;;;;;26.52;13.07;;;;;;;;;;6220650;23;20442;-87
2023/05/06 08:11:18;;;;;;;25.75;13.20;;;;;;;;;;6243010;23;20061;-88
2023/05/06 08:13:45;;;;;;;24.20;12.35;;;;;;;;;;6219726;23;20016;-87
2023/05/06 08:16:11;;;;;;;30.27;12.00;;;;;;;;;;6217439;23;20342;-89
2023/05/06 08:18:38;;;;;;;23.85;11.27;;;;;;;;;;6218361;23;20008;-86
2023/05/06 08:21:04;;;;;;;27.73;11.63;;;;;;;;;;6217889;23;20377;-88
2023/05/06 08:23:31;;;;;;;21.70;12.02;;;;;;;;;;6221099;23;20016;-88
2023/05/06 08:26:00;;;;;;;22.40;12.10;;;;;;;;;;6220132;23;20008;-88
2023/05/06 08:28:28;;;;;;;24.88;11.88;;;;;;;;;;6221733;23;20008;-88
2023/05/06 08:30:58;;;;;;;20.10;11.82;;;;;;;;;;6221876;22;20058;-88
2023/05/06 08:33:30;;;;;;;18.60;9.90;;;;;;;;;;6242440;22;20024;-88
2023/05/06 08:35:58;;;;;;;16.75;10.00;;;;;;;;;;6216998;23;20016;-87
2023/05/06 08:38:24;;;;;;;15.52;9.73;;;;;;;;;;6238639;23;20008;-89
2023/05/06 08:40:54;;;;;;;13.50;8.05;;;;;;;;;;6215801;23;20033;-88
2023/05/06 08:43:31;;;;;;;;;;;;;;;;;;;;;
2023/05/06 08:45:58;;;;;;;12.88;7.95;;;;;;;;;;6215292;23;20261;-89
2023/05/06 08:48:26;;;;;;;11.20;6.85;;;;;;;;;;6239814;23;20064;-89
2023/05/06 08:50:54;;;;;;;11.98;8.05;;;;;;;;;;6217676;23;20526;-89
2023/05/06 08:53:20;;;;;;;11.38;7.00;;;;;;;;;;6243160;23;20324;-89
2023/05/06 08:55:49;;;;;;;15.88;8.15;;;;;;;;;;6243396;23;20438;-89
2023/05/06 08:58:19;;;;;;;14.20;7.90;;;;;;;;;;6239142;23;20012;-89
2023/05/06 09:00:46;;;;;;;16.73;8.02;;;;;;;;;;6213796;23;20023;-90
2023/05/06 09:03:12;;;;;;;12.02;7.93;;;;;;;;;;6240259;23;20008;-89
2023/05/06 09:05:38;;;;;;;13.85;8.20;;;;;;;;;;6218252;23;20035;-89
2023/05/06 09:08:05;;;;;;;13.25;7.82;;;;;;;;;;6219754;23;20019;-88
2023/05/06 09:10:32;;;;;;;14.23;7.95;;;;;;;;;;6216511;23;20019;-89
2023/05/06 09:13:01;;;;;;;10.90;7.20;;;;;;;;;;6218816;23;20039;-87
2023/05/06 09:15:38;;;;;;;10.60;7.05;;;;;;;;;;6244157;23;20004;-88
2023/05/06 09:18:06;;;;;;;9.15;6.50;;;;;;;;;;6218686;23;20008;-89
2023/05/06 09:21:08;;;;;;;11.40;6.68;;;;;;;;;;6242138;23;20012;-89
2023/05/06 09:23:37;;;;;;;12.75;7.20;;;;;;;;;;6161286;23;20028;-92
2023/05/06 09:26:09;;;;;;;12.55;7.53;;;;;;;;;;6183511;23;20391;-91
2023/05/06 09:28:49;;;;;;;11.82;6.95;;;;;;;;;;6242453;23;20027;-90
2023/05/06 09:31:15;;;;;;;10.60;6.68;;;;;;;;;;6195195;23;20009;-90
2023/05/06 09:33:57;;;;;;;12.63;6.68;;;;;;;;;;6219867;22;20028;-90
2023/05/06 09:36:46;;;;;;;11.15;6.22;;;;;;;;;;6216830;23;20029;-91
2023/05/06 09:39:32;;;;;;;10.77;6.35;;;;;;;;;;6244782;23;20015;-91
2023/05/06 09:42:01;;;;;;;10.73;6.75;;;;;;;;;;6244501;23;20103;-89
2023/05/06 09:44:54;;;;;;;14.80;6.38;;;;;;;;;;6218598;23;20012;-90
2023/05/06 09:47:43;;;;;;;8.57;6.13;;;;;;;;;;6173749;23;20000;-90
2023/05/06 09:53:04;;;;;;;11.55;7.60;;;;;;;;;;6219019;23;20027;-89
2023/05/06 09:55:56;;;;;;;10.55;6.75;;;;;;;;;;6241841;23;20013;-90
2023/05/06 09:58:19;;;;;;;7.88;5.53;;;;;;;;;;6217085;23;20062;-89
2023/05/06 10:00:46;;;;;;;11.10;6.50;;;;;;;;;;6240608;23;20034;-89
2023/05/06 10:03:19;;;;;;;16.15;6.82;;;;;;;;;;6243962;23;20114;-90
2023/05/06 10:05:59;;;;;;;12.98;7.65;;;;;;;;;;6241540;23;20039;-89
2023/05/06 10:09:02;;;;;;;10.00;6.97;;;;;;;;;;6220798;23;20466;-90
2023/05/06 10:11:31;;;;;;;8.02;6.45;;;;;;;;;;6214704;23;20419;-91
2023/05/06 10:13:58;;;;;;;12.48;7.43;;;;;;;;;;6243624;23;20008;-89
2023/05/06 10:17:06;;;;;;;11.02;7.00;;;;;;;;;;6241877;23;20008;-90
2023/05/06 10:19:44;;;;;;;10.60;8.02;;;;;;;;;;6159631;23;20276;-89
2023/05/06 10:22:34;;;;;;;12.35;8.40;;;;;;;;;;6161427;23;20009;-89
2023/05/06 10:25:22;;;;;;;9.50;7.10;;;;;;;;;;6071089;23;20075;-89
2023/05/06 10:27:58;;;;;;;12.82;7.53;;;;;;;;;;6073153;23;20033;-91
2023/05/06 10:31:19;;;;;;;11.65;8.48;;;;;;;;;;6180711;23;20009;-90
2023/05/06 10:33:17;;;;;;;13.82;8.52;;;;;;;;;;6200804;22;20028;-91
2023/05/06 10:35:44;;;;;;;11.82;7.88;;;;;;;;;;6232184;23;20034;-89
2023/05/06 10:38:19;;;;;;;9.68;7.07;;;;;;;;;;6243218;23;20005;-90
2023/05/06 10:40:46;;;;;;;10.65;7.97;;;;;;;;;;6242188;23;20431;-91
2023/05/06 10:43:27;;;;;;;15.77;8.25;;;;;;;;;;6218195;23;20013;-91
2023/05/06 10:49:10;;;;;;;18.35;8.85;;;;;;;;;;6153231;23;20018;-90
2023/05/06 10:51:55;;;;;;;11.98;7.95;;;;;;;;;;6130159;23;20016;-92
2023/05/06 10:54:41;;;;;;;11.23;7.97;;;;;;;;;;6169302;23;20008;-91
2023/05/06 10:57:09;;;;;;;13.73;7.75;;;;;;;;;;6239394;23;20019;-91
2023/05/06 11:02:25;;;;;;;15.15;8.27;;;;;;;;;;6136156;23;20080;-93
2023/05/06 11:04:59;;;;;;;11.95;7.85;;;;;;;;;;6182704;23;20017;-92
2023/05/06 11:07:26;;;;;;;12.27;7.25;;;;;;;;;;6244295;23;20477;-93
2023/05/06 11:09:54;;;;;;;11.57;7.57;;;;;;;;;;6214657;23;20024;-92
2023/05/06 11:12:39;;;;;;;10.27;7.38;;;;;;;;;;6216246;23;20043;-90
2023/05/06 11:15:39;;;;;;;10.70;7.18;;;;;;;;;;6240294;23;20016;-92
2023/05/06 11:18:24;;;;;;;12.85;7.88;;;;;;;;;;6179293;23;20411;-91
2023/05/06 11:21:13;;;;;;;12.30;8.38;;;;;;;;;;6238594;23;20321;-92
2023/05/06 11:23:58;;;;;;;14.55;9.07;;;;;;;;;;6201460;23;20019;-91
2023/05/06 11:26:24;;;;;;;12.77;8.00;;;;;;;;;;6238115;23;20009;-91
2023/05/06 11:29:01;;;;;;;10.02;7.15;;;;;;;;;;6210704;23;20016;-89
2023/05/06 11:31:29;;;;;;;14.50;9.73;;;;;;;;;;6238195;23;20012;-91
2023/05/06 11:33:59;;;;;;;13.57;8.20;;;;;;;;;;6238448;22;20299;-92
2023/05/06 11:36:34;;;;;;;11.35;6.85;;;;;;;;;;6214159;23;20016;-91
2023/05/06 11:39:09;;;;;;;12.57;8.33;;;;;;;;;;6236351;23;20087;-91
2023/05/06 11:41:39;;;;;;;11.70;7.88;;;;;;;;;;6213468;23;20498;-92
2023/05/06 11:44:23;;;;;;;9.43;6.28;;;;;;;;;;6215782;23;20005;-91
2023/05/06 11:46:50;;;;;;;13.63;6.70;;;;;;;;;;6238435;23;20431;-91
2023/05/06 11:49:18;;;;;;;10.90;7.32;;;;;;;;;;6211242;23;20076;-92
2023/05/06 11:51:48;;;;;;;13.68;7.07;;;;;;;;;;6213538;23;20159;-88
2023/05/06 11:54:31;;;;;;;;;;;;;;;;;;;;;
2023/05/06 11:57:06;;;;;;;10.98;6.47;;;;;;;;;;6217394;23;20031;-92
2023/05/06 11:59:34;;;;;;;10.90;6.60;;;;;;;;;;6187862;23;20020;-89
2023/05/06 12:02:01;;;;;;;7.38;5.38;;;;;;;;;;6240988;23;20013;-91
2023/05/06 12:04:49;;;;;;;11.93;5.82;;;;;;;;;;6238169;23;20008;-90
2023/05/06 12:07:18;;;;;;;8.05;5.07;;;;;;;;;;6211062;23;20031;-90
2023/05/06 12:09:49;;;;;;;12.52;4.93;;;;;;;;;;6233404;23;20427;-91
2023/05/06 12:12:17;;;;;;;9.55;5.28;;;;;;;;;;6235209;23;20068;-90
2023/05/06 12:14:43;;;;;;;8.27;5.05;;;;;;;;;;6234666;23;20012;-91
2023/05/06 12:17:11;;;;;;;8.95;6.05;;;;;;;;;;6210285;23;20016;-91
2023/05/06 12:19:38;;;;;;;9.90;5.90;;;;;;;;;;6209116;23;20024;-90
2023/05/06 12:22:17;;;;;;;10.43;6.65;;;;;;;;;;6235571;23;20020;-91
2023/05/06 12:24:44;;;;;;;12.95;6.38;;;;;;;;;;6235569;23;20009;-92
2023/05/06 12:27:11;;;;;;;12.70;7.47;;;;;;;;;;6209641;23;20020;-91
2023/05/06 12:29:37;;;;;;;16.67;7.95;;;;;;;;;;6211892;23;20008;-89
2023/05/06 12:32:11;;;;;;;16.77;8.38;;;;;;;;;;6240597;22;20013;-89
2023/05/06 12:34:40;;;;;;;16.10;8.63;;;;;;;;;;6216264;23;20043;-89
2023/05/06 12:37:07;;;;;;;17.98;10.25;;;;;;;;;;6216438;23;20346;-90
2023/05/06 12:39:35;;;;;;;21.60;9.13;;;;;;;;;;6243523;23;20012;-88
2023/05/06 12:42:01;;;;;;;14.38;9.02;;;;;;;;;;6215787;23;20034;-91
2023/05/06 12:44:38;;;;;;;22.30;9.77;;;;;;;;;;6192824;23;20016;-91
2023/05/06 12:47:10;;;;;;;19.83;10.05;;;;;;;;;;6193971;23;20012;-90
2023/05/06 12:49:44;;;;;;;22.20;10.75;;;;;;;;;;6245865;23;20026;-91
2023/05/06 12:52:32;;;;;;;21.55;9.75;;;;;;;;;;6244507;23;20011;-91
2023/05/06 12:54:57;;;;;;;21.50;9.57;;;;;;;;;;6248350;23;20609;-90
2023/05/06 12:57:24;;;;;;;17.65;9.60;;;;;;;;;;6199260;23;20043;-91
2023/05/06 12:59:51;;;;;;;14.40;8.85;;;;;;;;;;6252821;23;20000;-94
2023/05/06 13:02:17;;;;;;;23.92;8.90;;;;;;;;;;6223135;23;20012;-91
2023/05/06 13:04:49;;;;;;;15.43;8.48;;;;;;;;;;6220480;23;20580;-89
2023/05/06 13:07:50;;;;;;;17.70;8.55;;;;;;;;;;6196028;23;20008;-89
2023/05/06 13:10:23;;;;;;;14.85;5.75;;;;;;;;;;6221499;23;20018;-87
2023/05/06 13:12:52;;;;;;;8.45;4.50;;;;;;;;;;6218918;23;20023;-87
2023/05/06 13:15:29;;;;;;;12.70;4.75;;;;;;;;;;6193398;23;20008;-88
2023/05/06 13:17:56;;;;;;;8.38;3.92;;;;;;;;;;6191987;23;20008;-87
2023/05/06 13:20:28;;;;;;;10.18;4.65;;;;;;;;;;6192530;23;20036;-87
2023/05/06 13:23:02;;;;;;;11.07;5.13;;;;;;;;;;6216872;23;20370;-87
2023/05/06 13:25:28;;;;;;;13.38;5.82;;;;;;;;;;6193605;23;20038;-87
2023/05/06 13:28:27;;;;;;;12.10;3.95;;;;;;;;;;6218030;23;20050;-88
2023/05/06 13:30:53;;;;;;;7.60;2.75;;;;;;;;;;6234787;23;20019;-87
2023/05/06 13:33:24;;;;;;;8.07;2.75;;;;;;;;;;6180072;22;20028;-87
2023/05/06 13:35:53;;;;;;;6.50;3.45;;;;;;;;;;6166123;23;20404;-86
2023/05/06 13:38:23;;;;;;;9.20;3.88;;;;;;;;;;6214707;23;20371;-88
2023/05/06 13:40:53;;;;;;;7.78;3.60;;;;;;;;;;6165250;23;20101;-88
2023/05/06 13:43:26;;;;;;;14.18;4.90;;;;;;;;;;6167332;23;20027;-89
2023/05/06 13:46:11;;;;;;;16.60;7.30;;;;;;;;;;6219970;23;20004;-86
2023/05/06 13:48:39;;;;;;;13.82;7.25;;;;;;;;;;6215729;23;20085;-88
2023/05/06 13:51:06;;;;;;;17.95;8.80;;;;;;;;;;6168611;23;20092;-88
2023/05/06 13:53:40;;;;;;;15.65;9.55;;;;;;;;;;6167295;23;20012;-87
2023/05/06 13:56:10;;;;;;;19.00;11.13;;;;;;;;;;6218924;23;20134;-87
2023/05/06 13:58:36;;;;;;;21.00;11.52;;;;;;;;;;6167724;23;20321;-88
2023/05/06 14:04:25;;;;;;;20.75;13.38;;;;;;;;;;6099080;23;20373;-88
2023/05/06 14:07:16;;;;;;;24.45;13.50;;;;;;;;;;6113343;23;20012;-88
2023/05/06 14:09:43;;;;;;;25.45;14.43;;;;;;;;;;6193482;23;20028;-89
2023/05/06 14:12:09;;;;;;;25.65;13.80;;;;;;;;;;6169476;23;20016;-88
2023/05/06 14:14:39;;;;;;;22.63;13.27;;;;;;;;;;6195228;23;20034;-89
2023/05/06 14:17:06;;;;;;;22.77;13.40;;;;;;;;;;6216821;23;20012;-88
2023/05/06 14:19:38;;;;;;;25.45;14.30;;;;;;;;;;6163363;23;20012;-88
2023/05/06 14:22:05;;;;;;;27.20;16.40;;;;;;;;;;6215022;23;20446;-88
2023/05/06 14:24:37;;;;;;;27.27;15.50;;;;;;;;;;6161574;23;20534;-88
2023/05/06 14:27:04;;;;;;;24.95;15.07;;;;;;;;;;6164585;23;20012;-87
2023/05/06 14:29:32;;;;;;;29.65;16.30;;;;;;;;;;6213252;23;20011;-88
2023/05/06 14:32:02;;;;;;;33.22;16.58;;;;;;;;;;6164723;23;20590;-88
2023/05/06 14:34:29;;;;;;;31.08;16.50;;;;;;;;;;6191201;22;20028;-89
2023/05/06 14:36:56;;;;;;;27.88;16.00;;;;;;;;;;6216689;23;20012;-90
2023/05/06 14:39:25;;;;;;;31.38;17.88;;;;;;;;;;6238232;23;20554;-91
2023/05/06 14:42:10;;;;;;;30.85;16.75;;;;;;;;;;6238259;23;20012;-89
2023/05/06 14:44:37;;;;;;;32.38;16.05;;;;;;;;;;6237942;23;20059;-89
2023/05/06 14:47:03;;;;;;;26.95;16.63;;;;;;;;;;6212019;23;20028;-90
2023/05/06 14:49:29;;;;;;;23.13;15.40;;;;;;;;;;6211675;23;20009;-89
2023/05/06 14:52:12;;;;;;;21.60;15.05;;;;;;;;;;6238137;23;20003;-89
2023/05/06 14:54:41;;;;;;;20.52;13.32;;;;;;;;;;6211535;23;20019;-90
2023/05/06 14:57:16;;;;;;;20.20;12.27;;;;;;;;;;6214134;23;20005;-90
2023/05/06 14:59:43;;;;;;;18.13;11.30;;;;;;;;;;6214049;23;20009;-89
2023/05/06 15:02:10;;;;;;;11.43;8.75;;;;;;;;;;6215024;23;20024;-90
2023/05/06 15:04:36;;;;;;;9.35;6.72;;;;;;;;;;6240803;23;20004;-90
2023/05/06 15:07:12;;;;;;;7.13;5.38;;;;;;;;;;6241846;23;20052;-90
2023/05/06 15:09:42;;;;;;;6.32;4.47;;;;;;;;;;6214110;23;20100;-89
2023/05/06 15:12:10;;;;;;;5.72;4.60;;;;;;;;;;6217223;23;20013;-91